Time;durP1;ratioP1;P1;durP2;ratioP2;P2;SDS_P1;SDS_P2;PMS_P1;PMS_P2;Temp;Humidity;BMP_temperature;BMP_pressure;BME280_temperature;BME280_humidity;BME280_pressure;Samples;Min_cycle;Max_cycle;Signal;HPM_P1;HPM_P2
2022/08/23 00:01:26;;;;;;;8.52;4.93;;;16.80;99.90;;;;;;5058432;28;20079;-70
2022/08/23 00:03:54;;;;;;;7.75;5.13;;;16.60;99.90;;;;;;5047215;28;20055;-70
2022/08/23 00:06:21;;;;;;;5.57;4.63;;;16.50;99.90;;;;;;5048162;28;20044;-70
2022/08/23 00:08:48;;;;;;;4.45;3.65;;;16.50;99.90;;;;;;5044117;28;20678;-70
2022/08/23 00:11:33;;;;;;;7.18;4.60;;;16.40;99.90;;;;;;5046636;28;20041;-70
2022/08/23 00:14:06;;;;;;;8.75;5.95;;;16.40;99.90;;;;;;5048314;28;20461;-70
2022/08/23 00:16:32;;;;;;;6.55;5.60;;;16.20;99.90;;;;;;5042481;28;20523;-70
2022/08/23 00:18:57;;;;;;;5.75;4.40;;;16.20;99.90;;;;;;5060354;28;20041;-70
2022/08/23 00:21:23;;;;;;;6.30;5.10;;;16.10;99.90;;;;;;5044224;28;20045;-70
2022/08/23 00:23:49;;;;;;;18.33;6.80;;;16.10;99.90;;;;;;5046510;28;20094;-70
2022/08/23 00:26:16;;;;;;;4.35;3.92;;;16.10;99.90;;;;;;5044848;28;20044;-70
2022/08/23 00:28:42;;;;;;;5.03;4.43;;;16.10;99.90;;;;;;5042171;28;20049;-70
2022/08/23 00:31:07;;;;;;;10.30;6.43;;;16.00;99.90;;;;;;5044020;28;20376;-70
2022/08/23 00:33:34;;;;;;;7.82;5.78;;;15.90;99.90;;;;;;5056795;28;20071;-70
2022/08/23 00:35:59;;;;;;;10.27;6.80;;;15.90;99.90;;;;;;5046703;28;20380;-69
2022/08/23 00:38:25;;;;;;;11.05;6.70;;;15.80;99.90;;;;;;5045516;28;20106;-70
2022/08/23 00:40:52;;;;;;;13.43;8.10;;;15.70;99.90;;;;;;5043497;28;20039;-69
2022/08/23 00:49:35;;;;;;;12.75;7.15;;;15.80;99.90;;;;;;5033484;28;20067;-70
2022/08/23 00:52:05;;;;;;;12.98;8.00;;;15.70;99.90;;;;;;5037788;28;20038;-70
2022/08/23 00:54:33;;;;;;;11.75;8.05;;;15.80;99.90;;;;;;5054196;28;20037;-70
2022/08/23 00:57:04;;;;;;;13.90;8.45;;;15.80;99.90;;;;;;5038257;28;20612;-69
2022/08/23 00:59:30;;;;;;;12.68;8.05;;;15.80;99.90;;;;;;5056767;28;20056;-69
2022/08/23 01:01:56;;;;;;;13.00;8.77;;;15.80;99.90;;;;;;5036190;28;20041;-70
2022/08/23 01:04:24;;;;;;;11.27;7.97;;;15.70;99.90;;;;;;5039199;28;20044;-70
2022/08/23 01:07:06;;;;;;;13.52;9.02;;;15.80;99.90;;;;;;5042042;28;20102;-70
2022/08/23 01:09:31;;;;;;;10.05;8.52;;;15.90;99.90;;;;;;5042366;28;20492;-70
2022/08/23 01:12:30;;;;;;;14.18;8.77;;;15.80;99.90;;;;;;5037720;28;20076;-70
2022/08/23 01:15:15;;;;;;;11.20;8.00;;;15.90;99.90;;;;;;5048065;28;20048;-70
2022/08/23 01:17:49;;;;;;;13.20;7.60;;;15.90;99.90;;;;;;5039566;28;20089;-70
2022/08/23 01:20:23;;;;;;;9.00;5.78;;;15.80;99.90;;;;;;5042276;28;20167;-69
2022/08/23 01:23:14;;;;;;;11.63;7.75;;;15.80;99.90;;;;;;5034282;28;20407;-69
2022/08/23 01:25:40;;;;;;;10.65;7.43;;;15.90;99.90;;;;;;5052751;28;20135;-69
2022/08/23 01:28:05;;;;;;;8.02;4.28;;;15.80;99.90;;;;;;5039798;28;20427;-69
2022/08/23 01:30:33;;;;;;;46.45;4.00;;;15.80;99.90;;;;;;5036516;28;20044;-69
2022/08/23 01:33:02;;;;;;;425.40;13.52;;;15.60;99.90;;;;;;5038622;28;20037;-69
2022/08/23 01:35:43;;;;;;;69.22;7.60;;;15.30;99.90;;;;;;5038982;28;20036;-69
2022/08/23 01:38:10;;;;;;;8.15;5.35;;;15.20;99.90;;;;;;5036869;28;20102;-69
2022/08/23 01:40:36;;;;;;;6.28;5.60;;;15.20;99.90;;;;;;5053942;28;20095;-69
2022/08/23 01:43:04;;;;;;;11.02;6.65;;;15.20;99.90;;;;;;5037498;28;20029;-69
2022/08/23 01:45:30;;;;;;;27.80;8.32;;;15.10;99.90;;;;;;5042063;28;20041;-70
2022/08/23 01:47:56;;;;;;;12.07;6.72;;;15.20;99.90;;;;;;5036576;28;20041;-69
2022/08/23 01:50:23;;;;;;;9.57;6.57;;;15.20;99.90;;;;;;5038792;28;20694;-69
2022/08/23 01:52:49;;;;;;;10.40;6.90;;;15.20;99.90;;;;;;5037460;28;20064;-69
2022/08/23 01:55:15;;;;;;;9.32;6.00;;;15.10;99.90;;;;;;5038540;28;20049;-69
2022/08/23 01:57:42;;;;;;;6.68;5.35;;;14.90;99.90;;;;;;5038612;28;20055;-69
2022/08/23 02:00:08;;;;;;;10.38;6.97;;;14.90;99.90;;;;;;5020797;28;20052;-69
2022/08/23 02:02:33;;;;;;;10.95;5.50;;;14.90;99.90;;;;;;5034607;28;20037;-69
2022/08/23 02:04:59;;;;;;;5.10;4.28;;;14.90;99.90;;;;;;5039296;28;20039;-69
2022/08/23 02:07:26;;;;;;;8.18;5.18;;;14.80;99.90;;;;;;5040860;28;20395;-69
2022/08/23 02:09:52;;;;;;;6.97;5.28;;;14.80;99.90;;;;;;5036967;28;20089;-68
2022/08/23 02:12:17;;;;;;;7.40;6.30;;;14.80;99.90;;;;;;5038490;28;20068;-68
2022/08/23 02:14:43;;;;;;;8.02;5.57;;;14.90;99.90;;;;;;5038198;28;20049;-68
2022/08/23 02:17:09;;;;;;;4.75;4.25;;;14.90;99.90;;;;;;5038412;28;20044;-68
2022/08/23 02:19:36;;;;;;;4.18;2.10;;;15.00;99.90;;;;;;5039571;28;20041;-68
2022/08/23 02:22:04;;;;;;;2.55;2.35;;;14.90;99.90;;;;;;5037126;28;20033;-68
2022/08/23 02:24:30;;;;;;;4.90;3.38;;;14.90;99.90;;;;;;5037413;28;20090;-68
2022/08/23 02:27:00;;;;;;;3.85;3.25;;;14.80;99.90;;;;;;5041164;28;20037;-68
2022/08/23 02:29:29;;;;;;;3.47;3.17;;;14.70;99.90;;;;;;5036170;28;21440;-68
2022/08/23 02:31:56;;;;;;;3.58;3.28;;;14.60;99.90;;;;;;5053621;28;20072;-68
2022/08/23 02:34:22;;;;;;;5.25;2.83;;;14.60;99.90;;;;;;5053278;28;20078;-68
2022/08/23 02:36:48;;;;;;;3.05;2.78;;;14.60;99.90;;;;;;5038213;28;20393;-68
2022/08/23 02:39:15;;;;;;;2.97;2.70;;;14.60;99.90;;;;;;5034208;28;20057;-68
2022/08/23 02:41:41;;;;;;;2.85;2.65;;;14.50;99.90;;;;;;5034270;28;20040;-68
2022/08/23 02:44:07;;;;;;;3.58;3.22;;;14.60;99.90;;;;;;5041312;28;20039;-68
2022/08/23 02:46:33;;;;;;;3.30;3.00;;;14.50;99.90;;;;;;5037944;28;20132;-68
2022/08/23 02:48:59;;;;;;;4.55;3.95;;;14.40;99.90;;;;;;5036584;28;20428;-68
2022/08/23 02:51:25;;;;;;;6.10;5.20;;;14.50;99.90;;;;;;5042901;28;20045;-67
2022/08/23 02:53:50;;;;;;;6.57;5.13;;;14.60;99.90;;;;;;5042997;28;20091;-67
2022/08/23 02:56:16;;;;;;;8.68;5.28;;;14.60;99.90;;;;;;5036617;28;20032;-67
2022/08/23 02:58:44;;;;;;;8.68;6.00;;;14.70;99.90;;;;;;5035384;28;20108;-67
2022/08/23 03:01:22;;;;;;;4.40;3.80;;;14.70;99.90;;;;;;5053346;28;20953;-67
2022/08/23 03:03:47;;;;;;;3.50;3.13;;;14.80;99.90;;;;;;5056305;28;20044;-67
2022/08/23 03:06:14;;;;;;;3.70;3.40;;;14.80;99.90;;;;;;5041308;28;20037;-67
2022/08/23 03:08:40;;;;;;;4.88;4.20;;;14.70;99.90;;;;;;5044181;28;20387;-67
2022/08/23 03:11:15;;;;;;;118.50;9.18;;;14.50;99.90;;;;;;5045710;28;20132;-67
2022/08/23 03:13:41;;;;;;;67.35;8.60;;;14.40;99.90;;;;;;5042091;28;20043;-67
2022/08/23 03:16:09;;;;;;;8.45;6.03;;;14.50;99.90;;;;;;5041574;28;20045;-67
2022/08/23 03:18:36;;;;;;;8.18;6.10;;;14.50;99.90;;;;;;5043049;28;20052;-67
2022/08/23 03:21:03;;;;;;;7.18;5.43;;;14.30;99.90;;;;;;5043419;28;20051;-67
2022/08/23 03:23:29;;;;;;;8.32;6.97;;;14.40;99.90;;;;;;5041225;28;20041;-67
2022/08/23 03:25:57;;;;;;;9.90;7.97;;;14.30;99.90;;;;;;5043414;28;20122;-66
2022/08/23 03:28:23;;;;;;;9.23;7.70;;;14.50;99.90;;;;;;5042360;28;21074;-66
2022/08/23 03:30:49;;;;;;;10.32;6.82;;;14.60;99.90;;;;;;5044067;28;20041;-67
2022/08/23 03:33:15;;;;;;;9.63;5.93;;;14.60;99.90;;;;;;5042602;28;20040;-66
2022/08/23 03:35:41;;;;;;;7.03;5.97;;;14.60;99.90;;;;;;5041948;28;20293;-67
2022/08/23 03:38:07;;;;;;;18.65;7.20;;;14.80;99.90;;;;;;5042262;28;20061;-67
2022/08/23 03:40:33;;;;;;;7.45;6.72;;;14.80;99.90;;;;;;5039363;28;20045;-67
2022/08/23 03:43:00;;;;;;;11.75;8.32;;;14.80;99.90;;;;;;5040118;28;20037;-67
2022/08/23 03:45:26;;;;;;;11.52;8.93;;;14.70;99.90;;;;;;5043088;28;20094;-67
2022/08/23 03:47:52;;;;;;;8.95;7.88;;;14.80;99.90;;;;;;5042817;28;20127;-67
2022/08/23 03:50:17;;;;;;;10.95;8.68;;;14.80;99.90;;;;;;5041238;28;20135;-67
2022/08/23 03:52:43;;;;;;;9.18;6.70;;;14.80;99.90;;;;;;5041902;28;20412;-67
2022/08/23 03:55:09;;;;;;;7.68;6.60;;;14.80;99.90;;;;;;5042432;28;20029;-68
2022/08/23 03:57:34;;;;;;;401.08;19.45;;;14.70;99.90;;;;;;5039438;28;20313;-68
2022/08/23 04:00:00;;;;;;;20.70;10.52;;;14.70;99.90;;;;;;5034436;28;20041;-68
2022/08/23 04:02:26;;;;;;;12.35;10.30;;;14.50;99.90;;;;;;5040117;28;20099;-68
2022/08/23 04:04:52;;;;;;;11.68;10.07;;;14.50;99.90;;;;;;5057146;28;20049;-68
2022/08/23 04:07:21;;;;;;;115.10;12.90;;;14.50;99.90;;;;;;5045479;28;20435;-68
2022/08/23 04:09:46;;;;;;;29.02;9.73;;;14.60;99.90;;;;;;5060493;28;20044;-68
2022/08/23 04:12:12;;;;;;;9.20;6.05;;;14.60;99.90;;;;;;5041964;28;20044;-68
2022/08/23 04:14:38;;;;;;;6.63;5.78;;;14.50;99.90;;;;;;5053598;28;20159;-67
2022/08/23 04:17:03;;;;;;;6.20;5.55;;;14.40;99.90;;;;;;5042345;28;20135;-67
2022/08/23 04:19:30;;;;;;;11.88;6.20;;;14.40;99.90;;;;;;5044452;28;20052;-68
2022/08/23 04:21:56;;;;;;;9.75;6.47;;;14.30;99.90;;;;;;5054705;28;20041;-67
2022/08/23 04:24:22;;;;;;;6.53;5.88;;;14.20;99.90;;;;;;5041127;28;20129;-68
2022/08/23 04:26:47;;;;;;;5.93;5.22;;;14.20;99.90;;;;;;5040345;28;20075;-68
2022/08/23 04:29:15;;;;;;;6.13;5.53;;;14.30;99.90;;;;;;5037612;28;20096;-67
2022/08/23 04:31:42;;;;;;;6.57;5.55;;;14.20;99.90;;;;;;5041255;28;20091;-67
2022/08/23 04:34:08;;;;;;;6.97;5.15;;;14.20;99.90;;;;;;5042996;28;20055;-67
2022/08/23 04:36:39;;;;;;;5.15;4.65;;;14.20;99.90;;;;;;5054687;28;20050;-68
2022/08/23 04:39:05;;;;;;;4.07;3.72;;;14.20;99.90;;;;;;5057760;28;20403;-67
2022/08/23 04:44:16;;;;;;;4.32;3.92;;;14.20;99.90;;;;;;5042948;28;20052;-67
2022/08/23 04:46:42;;;;;;;5.25;4.72;;;14.10;99.90;;;;;;5043501;28;20373;-67
2022/08/23 04:49:09;;;;;;;60.72;5.80;;;14.00;99.90;;;;;;5022190;28;20045;-67
2022/08/23 04:51:35;;;;;;;4.85;4.15;;;14.10;99.90;;;;;;5046211;28;20504;-67
2022/08/23 04:54:01;;;;;;;3.08;2.55;;;14.10;99.90;;;;;;5040269;28;20075;-67
2022/08/23 04:56:27;;;;;;;4.00;3.60;;;14.10;99.90;;;;;;5043870;28;20149;-67
2022/08/23 04:58:53;;;;;;;4.53;3.33;;;14.10;99.90;;;;;;5059458;28;20041;-67
2022/08/23 05:01:19;;;;;;;3.90;3.50;;;14.00;99.90;;;;;;5040402;28;20048;-67
2022/08/23 05:03:45;;;;;;;3.80;3.45;;;14.10;99.90;;;;;;5044985;28;20049;-67
2022/08/23 05:06:12;;;;;;;2.67;1.80;;;14.10;99.90;;;;;;5037174;28;20041;-67
2022/08/23 05:08:37;;;;;;;2.53;2.33;;;14.20;99.90;;;;;;5046723;28;20551;-67
2022/08/23 05:11:05;;;;;;;2.40;2.20;;;14.20;99.90;;;;;;5044338;28;20115;-68
2022/08/23 05:13:31;;;;;;;3.20;2.80;;;14.10;99.90;;;;;;5047507;28;20046;-68
2022/08/23 05:15:57;;;;;;;3.78;3.45;;;14.20;99.90;;;;;;5049796;28;20041;-68
2022/08/23 05:18:23;;;;;;;7.28;5.80;;;14.20;99.90;;;;;;5046087;28;20063;-68
2022/08/23 05:20:50;;;;;;;8.30;6.55;;;14.30;99.90;;;;;;5046105;28;20511;-67
2022/08/23 05:23:15;;;;;;;10.27;8.18;;;14.40;99.90;;;;;;5047388;28;20033;-67
2022/08/23 05:25:50;;;;;;;12.27;9.70;;;14.50;99.90;;;;;;5046086;28;20099;-67
2022/08/23 05:28:17;;;;;;;10.38;8.60;;;14.50;99.90;;;;;;5044805;28;20041;-68
2022/08/23 05:30:44;;;;;;;6.53;4.72;;;14.60;99.90;;;;;;5045893;28;20118;-67
2022/08/23 05:33:10;;;;;;;5.65;5.05;;;14.50;99.90;;;;;;5046022;28;20036;-66
2022/08/23 05:35:36;;;;;;;8.82;7.00;;;14.60;99.90;;;;;;5040837;28;20052;-66
2022/08/23 05:38:02;;;;;;;6.60;5.90;;;14.60;99.90;;;;;;5041433;28;20041;-66
2022/08/23 05:40:28;;;;;;;8.23;6.40;;;14.90;99.90;;;;;;5037915;28;20130;-66
2022/08/23 05:42:54;;;;;;;6.90;6.20;;;15.00;99.90;;;;;;5040481;28;20123;-66
2022/08/23 05:45:19;;;;;;;9.10;7.75;;;15.00;99.90;;;;;;5041165;28;20040;-66
2022/08/23 05:47:45;;;;;;;13.68;11.25;;;15.10;99.90;;;;;;5037594;28;20067;-66
2022/08/23 05:50:11;;;;;;;14.52;11.20;;;15.20;99.90;;;;;;5040640;28;20036;-66
2022/08/23 05:52:37;;;;;;;13.98;11.13;;;15.30;99.90;;;;;;5042685;28;20094;-66
2022/08/23 05:55:04;;;;;;;17.10;12.63;;;15.40;99.90;;;;;;5044495;28;20301;-66
2022/08/23 05:57:29;;;;;;;15.07;12.85;;;15.50;99.90;;;;;;5035516;28;20048;-67
2022/08/23 05:59:55;;;;;;;18.02;13.85;;;15.60;99.90;;;;;;5039993;28;20037;-67
2022/08/23 06:02:21;;;;;;;16.50;14.15;;;15.60;99.90;;;;;;5039904;28;20051;-67
2022/08/23 06:04:46;;;;;;;20.48;15.27;;;15.70;99.90;;;;;;5040839;28;20060;-67
2022/08/23 06:07:12;;;;;;;24.20;16.98;;;15.80;99.90;;;;;;5038033;28;20037;-68
2022/08/23 06:09:37;;;;;;;18.88;16.05;;;15.80;99.90;;;;;;5047551;28;20051;-67
2022/08/23 06:12:03;;;;;;;19.20;15.10;;;15.90;99.90;;;;;;5049682;28;20043;-68
2022/08/23 06:14:29;;;;;;;19.50;15.10;;;15.90;99.90;;;;;;5033546;28;20407;-68
2022/08/23 06:16:54;;;;;;;20.15;14.05;;;16.00;99.90;;;;;;5050717;28;20049;-68
2022/08/23 06:19:20;;;;;;;18.83;13.95;;;16.10;99.90;;;;;;5051495;28;20056;-68
2022/08/23 06:21:46;;;;;;;22.80;17.13;;;16.20;99.90;;;;;;5065373;28;20471;-69
2022/08/23 06:24:13;;;;;;;22.10;16.25;;;16.20;99.90;;;;;;5046707;28;20091;-69
2022/08/23 06:26:43;;;;;;;19.38;15.18;;;16.30;99.90;;;;;;5066193;28;20041;-69
2022/08/23 06:29:11;;;;;;;20.02;16.00;;;16.30;99.90;;;;;;5048208;28;20119;-69
2022/08/23 06:31:45;;;;;;;21.13;18.23;;;16.40;99.90;;;;;;5049477;28;20120;-69
2022/08/23 06:34:47;;;;;;;23.45;17.98;;;16.50;99.90;;;;;;5047766;28;20052;-69
2022/08/23 06:37:13;;;;;;;20.92;17.08;;;16.50;99.90;;;;;;5031562;28;20055;-69
2022/08/23 06:39:39;;;;;;;24.30;18.92;;;16.70;99.90;;;;;;5041936;28;20053;-69
2022/08/23 06:42:11;;;;;;;23.77;17.95;;;16.70;99.90;;;;;;5048796;28;20123;-69
2022/08/23 06:44:37;;;;;;;22.47;18.77;;;16.80;99.90;;;;;;5048318;28;20033;-69
2022/08/23 06:47:04;;;;;;;29.95;21.05;;;16.90;99.90;;;;;;5047489;28;20047;-70
2022/08/23 06:49:30;;;;;;;22.08;18.08;;;17.00;99.90;;;;;;5050580;28;20107;-70
2022/08/23 06:51:58;;;;;;;21.70;19.10;;;17.10;99.90;;;;;;5048693;28;20072;-70
2022/08/23 06:54:26;;;;;;;23.52;18.10;;;17.20;99.90;;;;;;5052766;28;20106;-71
2022/08/23 06:56:52;;;;;;;26.75;19.58;;;17.40;99.90;;;;;;5047073;28;20037;-70
2022/08/23 06:59:19;;;;;;;23.55;19.20;;;17.70;99.90;;;;;;5049189;28;20045;-71
2022/08/23 07:01:51;;;;;;;25.98;20.10;;;18.00;99.90;;;;;;5048402;28;20045;-71
2022/08/23 07:04:20;;;;;;;23.90;20.00;;;18.10;99.90;;;;;;5049045;28;20037;-70
2022/08/23 07:06:46;;;;;;;25.92;19.27;;;18.40;99.90;;;;;;5049901;28;20479;-71
2022/08/23 07:09:12;;;;;;;24.15;19.77;;;18.60;99.90;;;;;;5047651;28;20044;-71
2022/08/23 07:11:38;;;;;;;22.60;18.38;;;18.60;99.90;;;;;;5047265;28;20071;-71
2022/08/23 07:14:07;;;;;;;25.13;19.35;;;18.70;99.90;;;;;;5048788;28;20052;-71
2022/08/23 07:16:38;;;;;;;26.98;20.70;;;18.80;99.90;;;;;;5049014;28;20053;-71
2022/08/23 07:19:05;;;;;;;25.63;19.90;;;18.90;99.90;;;;;;5044253;28;20136;-71
2022/08/23 07:21:31;;;;;;;23.25;19.60;;;19.00;99.90;;;;;;5045412;28;20045;-70
2022/08/23 07:23:57;;;;;;;23.42;18.95;;;19.10;99.90;;;;;;5048993;28;20051;-70
2022/08/23 07:26:23;;;;;;;23.02;19.80;;;19.20;99.90;;;;;;5044072;28;20121;-69
2022/08/23 07:28:49;;;;;;;22.50;18.95;;;19.30;99.90;;;;;;5049545;28;20036;-69
2022/08/23 07:31:19;;;;;;;23.77;19.35;;;19.40;99.90;;;;;;5048246;28;20036;-69
2022/08/23 07:33:46;;;;;;;20.52;18.13;;;19.50;99.90;;;;;;5048400;28;20049;-69
2022/08/23 07:36:15;;;;;;;21.08;16.92;;;19.60;99.90;;;;;;5049227;28;20048;-69
2022/08/23 07:38:42;;;;;;;21.50;16.67;;;19.70;99.90;;;;;;5048656;28;20514;-69
2022/08/23 07:41:08;;;;;;;19.58;16.05;;;19.80;99.90;;;;;;5046426;28;20041;-68
2022/08/23 07:43:34;;;;;;;18.73;16.48;;;20.00;99.90;;;;;;5047002;28;20522;-69
2022/08/23 07:46:01;;;;;;;17.25;15.45;;;20.10;99.90;;;;;;5047508;28;20087;-68
2022/08/23 07:48:26;;;;;;;18.95;16.73;;;20.10;99.90;;;;;;5048218;28;20033;-68
2022/08/23 07:50:54;;;;;;;20.15;17.00;;;20.30;99.90;;;;;;5051184;28;20066;-68
2022/08/23 07:53:20;;;;;;;19.90;16.27;;;20.40;99.90;;;;;;5051343;28;20091;-68
2022/08/23 07:55:46;;;;;;;19.83;16.40;;;20.40;99.90;;;;;;5052277;28;20419;-68
2022/08/23 07:58:12;;;;;;;18.00;16.10;;;20.50;99.90;;;;;;5051156;28;20041;-68
2022/08/23 08:00:37;;;;;;;29.65;16.73;;;20.50;99.90;;;;;;5045115;28;20045;-68
2022/08/23 08:03:03;;;;;;;20.25;15.98;;;20.60;99.90;;;;;;5061580;28;20408;-69
2022/08/23 08:05:31;;;;;;;19.98;15.43;;;20.70;99.90;;;;;;5069853;28;20445;-68
2022/08/23 08:07:57;;;;;;;18.48;16.55;;;20.80;99.90;;;;;;5068854;28;20110;-68
2022/08/23 08:10:23;;;;;;;17.52;15.10;;;20.80;99.90;;;;;;5051925;28;20037;-68
2022/08/23 08:12:48;;;;;;;19.83;15.57;;;20.90;99.90;;;;;;5051544;28;20045;-68
2022/08/23 08:15:15;;;;;;;17.80;15.10;;;21.00;99.90;;;;;;5050004;28;20518;-68
2022/08/23 08:17:41;;;;;;;19.55;14.95;;;21.10;99.90;;;;;;5053157;28;20545;-68
2022/08/23 08:20:07;;;;;;;16.50;14.73;;;21.20;99.90;;;;;;5052251;28;20037;-68
2022/08/23 08:22:33;;;;;;;16.55;14.75;;;21.20;99.90;;;;;;5051420;28;20045;-68
2022/08/23 08:24:59;;;;;;;17.85;15.40;;;21.30;99.90;;;;;;5051975;28;20483;-68
2022/08/23 08:27:24;;;;;;;17.17;14.65;;;21.30;99.90;;;;;;5051656;28;20088;-68
2022/08/23 08:29:50;;;;;;;16.52;14.65;;;21.30;99.90;;;;;;5049004;28;20566;-68
2022/08/23 08:32:15;;;;;;;16.13;14.35;;;21.40;99.90;;;;;;5048841;28;20388;-68
2022/08/23 08:34:41;;;;;;;19.13;15.45;;;21.50;99.90;;;;;;5051113;28;20445;-68
2022/08/23 08:37:07;;;;;;;18.65;14.60;;;21.60;99.90;;;;;;5051973;28;20127;-68
2022/08/23 08:39:33;;;;;;;17.65;15.07;;;21.80;99.90;;;;;;5067759;28;20605;-68
2022/08/23 08:42:03;;;;;;;16.98;14.85;;;21.90;99.90;;;;;;5049320;28;20340;-68
2022/08/23 08:44:38;;;;;;;17.33;14.20;;;22.10;99.90;;;;;;5064359;28;20068;-69
2022/08/23 08:47:26;;;;;;;15.55;12.50;;;22.20;99.90;;;;;;5049163;28;20136;-68
2022/08/23 08:50:01;;;;;;;16.55;11.98;;;22.50;99.90;;;;;;5029557;28;20041;-69
2022/08/23 08:52:40;;;;;;;18.88;12.20;;;22.60;99.90;;;;;;5050158;28;20090;-69
2022/08/23 08:55:37;;;;;;;14.10;11.02;;;22.70;99.90;;;;;;5051680;28;20048;-69
2022/08/23 08:58:06;;;;;;;13.95;11.10;;;22.70;99.90;;;;;;5050636;28;20045;-69
2022/08/23 09:00:36;;;;;;;12.88;11.23;;;22.80;99.90;;;;;;5051793;28;20053;-69
2022/08/23 09:03:09;;;;;;;13.88;12.13;;;22.90;99.90;;;;;;5049477;28;20983;-69
2022/08/23 09:05:38;;;;;;;12.75;11.48;;;22.90;99.90;;;;;;5049968;28;20040;-69
2022/08/23 09:08:29;;;;;;;15.85;12.20;;;22.90;99.90;;;;;;5051290;28;20502;-69
2022/08/23 09:11:07;;;;;;;17.40;13.30;;;23.00;99.90;;;;;;5044135;28;20072;-69
2022/08/23 09:14:13;;;;;;;15.38;13.52;;;23.00;99.90;;;;;;5052016;28;20079;-69
2022/08/23 09:16:42;;;;;;;15.15;12.98;;;23.10;99.90;;;;;;5062664;28;20045;-70
2022/08/23 09:19:08;;;;;;;15.48;12.63;;;23.20;99.90;;;;;;5050328;28;20045;-70
2022/08/23 09:21:48;;;;;;;15.77;12.50;;;23.30;99.90;;;;;;5050132;28;20040;-69
2022/08/23 09:24:14;;;;;;;15.00;12.07;;;23.50;99.90;;;;;;5048391;28;20084;-69
2022/08/23 09:26:40;;;;;;;15.85;13.38;;;23.60;99.90;;;;;;5043838;28;20091;-70
2022/08/23 09:29:24;;;;;;;14.73;12.82;;;23.70;99.90;;;;;;5049096;28;20423;-70
2022/08/23 09:31:54;;;;;;;14.00;12.60;;;23.80;99.90;;;;;;5048294;28;20037;-70
2022/08/23 09:34:38;;;;;;;16.10;13.23;;;23.80;99.90;;;;;;5045189;28;20064;-70
2022/08/23 09:37:18;;;;;;;16.95;13.00;;;23.80;99.90;;;;;;5045575;28;20077;-70
2022/08/23 09:39:48;;;;;;;17.92;12.70;;;23.80;99.90;;;;;;5049921;28;20408;-70
2022/08/23 09:42:28;;;;;;;14.20;12.07;;;23.80;99.90;;;;;;5049528;28;20467;-70
2022/08/23 09:44:55;;;;;;;18.05;13.52;;;23.80;99.90;;;;;;5050554;28;20504;-70
2022/08/23 09:47:32;;;;;;;17.17;14.23;;;23.80;99.90;;;;;;5050533;28;20049;-71
2022/08/23 09:50:16;;;;;;;17.17;14.50;;;23.80;99.90;;;;;;5065438;28;20067;-71
2022/08/23 09:52:42;;;;;;;18.08;14.55;;;24.00;99.90;;;;;;5047604;28;20399;-71
2022/08/23 09:55:24;;;;;;;18.25;16.40;;;24.10;99.90;;;;;;5045587;28;20536;-71
2022/08/23 09:57:50;;;;;;;21.98;17.17;;;24.20;99.90;;;;;;5042959;28;20045;-71
2022/08/23 10:00:16;;;;;;;18.85;16.75;;;24.30;99.90;;;;;;5046608;28;20048;-71
2022/08/23 10:02:42;;;;;;;20.48;17.38;;;24.40;99.90;;;;;;5048885;28;20041;-71
2022/08/23 10:05:19;;;;;;;22.90;17.17;;;24.40;99.90;;;;;;5049848;28;20055;-71
2022/08/23 10:08:00;;;;;;;21.33;17.63;;;24.40;99.90;;;;;;5048870;28;20048;-71
2022/08/23 10:10:25;;;;;;;19.77;17.70;;;24.40;99.90;;;;;;5048082;28;20071;-71
2022/08/23 10:12:53;;;;;;;25.67;18.50;;;24.40;99.90;;;;;;5026894;28;20128;-71
2022/08/23 10:15:24;;;;;;;19.98;17.85;;;24.50;99.90;;;;;;5046159;28;20045;-72
2022/08/23 10:18:01;;;;;;;26.65;18.45;;;24.70;99.90;;;;;;5046832;28;20395;-72
2022/08/23 10:21:20;;;;;;;21.80;18.77;;;24.80;99.90;;;;;;5050058;28;20068;-72
2022/08/23 10:23:54;;;;;;;19.88;17.77;;;24.90;99.90;;;;;;4987046;28;20034;-72
2022/08/23 10:27:03;;;;;;;19.23;16.15;;;25.00;99.90;;;;;;5013753;28;20037;-72
2022/08/23 10:29:47;;;;;;;17.88;15.57;;;25.20;99.90;;;;;;4986386;28;20061;-72
2022/08/23 10:32:21;;;;;;;20.30;16.02;;;25.30;99.90;;;;;;5046825;28;20054;-72
2022/08/23 10:34:59;;;;;;;19.58;15.68;;;25.40;99.90;;;;;;5049170;28;20056;-72
2022/08/23 10:37:50;;;;;;;20.65;15.35;;;25.50;99.90;;;;;;5048432;28;20040;-72
2022/08/23 10:40:35;;;;;;;17.40;15.63;;;25.50;99.90;;;;;;5041243;28;20048;-72
2022/08/23 10:43:25;;;;;;;19.95;15.50;;;25.50;99.90;;;;;;5043202;28;20072;-72
2022/08/23 10:45:51;;;;;;;18.58;15.93;;;25.50;99.90;;;;;;5045371;28;20044;-72
2022/08/23 10:48:28;;;;;;;19.33;15.98;;;25.60;99.90;;;;;;5048450;28;20099;-72
2022/08/23 10:51:08;;;;;;;20.02;16.33;;;25.70;99.90;;;;;;5045352;28;20044;-73
2022/08/23 10:53:44;;;;;;;19.00;15.27;;;25.80;99.90;;;;;;5046166;28;20122;-72
2022/08/23 10:56:15;;;;;;;17.98;13.40;;;25.80;99.90;;;;;;5019924;28;20345;-72
2022/08/23 10:58:57;;;;;;;14.70;12.93;;;25.80;99.90;;;;;;5044037;28;20040;-72
2022/08/23 11:01:44;;;;;;;16.40;12.98;;;25.90;99.90;;;;;;5047972;28;20062;-72
2022/08/23 11:04:30;;;;;;;15.23;12.60;;;25.90;99.90;;;;;;5043932;28;20072;-72
2022/08/23 11:06:59;;;;;;;13.07;11.70;;;26.00;99.90;;;;;;5044625;28;20037;-72
2022/08/23 11:09:24;;;;;;;12.88;11.48;;;26.10;99.90;;;;;;5042202;28;20044;-72
2022/08/23 11:12:27;;;;;;;9.40;8.27;;;26.10;99.90;;;;;;5035243;28;20102;-72
2022/08/23 11:14:56;;;;;;;11.05;7.90;;;26.10;99.90;;;;;;5027380;28;20053;-72
2022/08/23 11:17:29;;;;;;;9.80;6.55;;;26.20;99.90;;;;;;5042854;28;20082;-72
2022/08/23 11:20:07;;;;;;;8.70;6.97;;;26.20;99.90;;;;;;5040220;28;20423;-72
2022/08/23 11:22:53;;;;;;;15.93;8.10;;;26.30;99.90;;;;;;5038571;28;20041;-72
2022/08/23 11:25:19;;;;;;;11.43;6.63;;;26.30;99.90;;;;;;5047381;28;20052;-74
2022/08/23 11:27:44;;;;;;;9.10;5.10;;;26.30;99.90;;;;;;5047867;28;20423;-72
2022/08/23 11:30:32;;;;;;;9.15;5.32;;;26.30;99.90;;;;;;5065144;28;20037;-72
2022/08/23 11:33:12;;;;;;;9.82;5.25;;;26.40;99.90;;;;;;5047527;28;20071;-72
2022/08/23 11:35:43;;;;;;;13.30;6.10;;;26.50;99.90;;;;;;5028266;28;20037;-73
2022/08/23 11:38:09;;;;;;;7.85;4.88;;;26.50;99.90;;;;;;5047945;28;20392;-73
2022/08/23 11:40:56;;;;;;;7.32;4.78;;;26.50;99.90;;;;;;5048366;28;20060;-72
2022/08/23 11:43:38;;;;;;;8.10;5.40;;;26.50;99.90;;;;;;5046544;28;20039;-72
2022/08/23 11:46:15;;;;;;;7.55;4.60;;;26.60;99.90;;;;;;5043109;28;20036;-71
2022/08/23 11:48:46;;;;;;;6.75;4.18;;;26.70;99.90;;;;;;5047793;28;20040;-72
2022/08/23 11:51:18;;;;;;;;;;;26.70;99.90;;;;;;5045596;28;20045;-71
2022/08/23 11:53:53;;;;;;;8.55;4.95;;;26.70;99.90;;;;;;5045051;28;19962;-72
2022/08/23 11:56:30;;;;;;;7.63;4.05;;;26.80;99.90;;;;;;5045722;28;20045;-72
2022/08/23 11:59:33;;;;;;;5.63;4.03;;;26.90;99.90;;;;;;5047341;28;20045;-72
2022/08/23 12:02:46;;;;;;;12.00;5.20;;;27.00;99.90;;;;;;5065680;28;20140;-72
2022/08/23 12:05:21;;;;;;;7.32;4.70;;;27.10;99.90;;;;;;5035447;28;20077;-73
2022/08/23 12:08:02;;;;;;;7.95;5.07;;;27.10;99.90;;;;;;5047600;28;20052;-73
2022/08/23 12:10:39;;;;;;;9.93;4.60;;;27.10;99.90;;;;;;5048107;28;20144;-72
2022/08/23 12:13:20;;;;;;;7.63;4.28;;;27.10;99.90;;;;;;5044927;28;20541;-74
2022/08/23 12:16:10;;;;;;;12.65;4.40;;;27.00;99.90;;;;;;5060327;28;20076;-72
2022/08/23 12:18:59;;;;;;;7.47;4.15;;;27.00;99.90;;;;;;5062029;28;20044;-73
2022/08/23 12:21:40;;;;;;;7.25;4.68;;;27.00;99.90;;;;;;5040130;28;20378;-73
2022/08/23 12:24:23;;;;;;;9.30;4.20;;;27.00;99.90;;;;;;5047131;28;20052;-71
2022/08/23 12:26:58;;;;;;;6.20;4.10;;;27.10;99.90;;;;;;5062715;28;20090;-73
2022/08/23 12:29:41;;;;;;;15.05;4.10;;;27.20;99.90;;;;;;5045185;28;20037;-73
2022/08/23 12:32:16;;;;;;;6.57;3.95;;;27.30;99.90;;;;;;5059830;28;20049;-73
2022/08/23 12:34:57;;;;;;;6.70;3.85;;;27.30;99.90;;;;;;5043631;28;20128;-72
2022/08/23 12:37:44;;;;;;;6.25;4.07;;;27.30;99.90;;;;;;5047392;28;20549;-72
2022/08/23 12:40:21;;;;;;;5.80;3.75;;;27.30;99.90;;;;;;5046937;28;20080;-73
2022/08/23 12:42:47;;;;;;;6.00;4.07;;;27.40;99.90;;;;;;5043850;28;20033;-73
2022/08/23 12:45:22;;;;;;;6.53;4.03;;;27.50;99.90;;;;;;5045296;28;20277;-73
2022/08/23 12:47:59;;;;;;;7.30;4.30;;;27.40;99.90;;;;;;5062074;28;20029;-73
2022/08/23 12:50:25;;;;;;;7.80;4.55;;;27.50;99.90;;;;;;5046690;28;20106;-73
2022/08/23 12:53:02;;;;;;;7.57;4.38;;;27.50;99.90;;;;;;5047122;28;20071;-72
2022/08/23 12:55:31;;;;;;;7.57;4.75;;;27.60;99.90;;;;;;5046455;28;20055;-73
2022/08/23 12:57:58;;;;;;;7.70;4.28;;;27.80;99.90;;;;;;5045018;28;20063;-73
2022/08/23 13:00:42;;;;;;;7.43;4.38;;;27.90;99.90;;;;;;5059474;28;20056;-74
2022/08/23 13:03:28;;;;;;;7.10;4.95;;;28.00;99.90;;;;;;5044453;28;20124;-74